KMCI/MCI METAR and TAF weather

Enter ICAO airport designator
Station Type Date Time Source
KMCI METAR 2019/10/15 17:53 UTC NOAA

KMCI 151753Z 35013G22KT 10SM FEW130 17/06 A2998 RMK AO2 PK WND 01026/1655 SLP146 T01720056 10172 20150 51017


Station Type Date Time Source
KMCI Decoded METAR 2019/10/15 17:53 UTC NOAA

KANSAS CITY INTERNATIONAL AIRPORT, MO, United States (KMCI) 39-18N 94-44W 320M
Oct 15, 2019 - 01:53 PM EDT / 2019.10.15 1753 UTC
Wind: from the N (350 degrees) at 15 MPH (13 KT) gusting to 25 MPH (22 KT):0
Visibility: 10 mile(s):0
Sky conditions: mostly clear
Temperature: 63.0 F (17.2 C)
Dew Point: 42.1 F (5.6 C)
Relative Humidity: 46%
Pressure (altimeter): 29.98 in. Hg (1015 hPa)
Pressure tendency: 0.05 inches (1.7 hPa) higher than three hours ago
ob: KMCI 151753Z 35013G22KT 10SM FEW130 17/06 A2998 RMK AO2 PK WND 01026/1655 SLP146 T01720056 10172 20150 51017
cycle: 18

Station Type Date Time Source
KMCI TAF 2019/10/15 18:28 UTC NOAA

TAF KMCI 151726Z 1518/1618 33015KT P6SM SCT150
FM160200 33010KT P6SM SCT035

Example: see airport list